Time;durP1;ratioP1;P1;durP2;ratioP2;P2;SDS_P1;SDS_P2;PMS_P1;PMS_P2;Temp;Humidity;BMP_temperature;BMP_pressure;BME280_temperature;BME280_humidity;BME280_pressure;Samples;Min_cycle;Max_cycle;Signal;HPM_P1;HPM_P2
2024/04/05 00:01:33;;;;;;;2.67;1.17;;;16.30;58.40;;;11.74;92.52;95552.41;4954635;28;20049;-56
2024/04/05 00:04:04;;;;;;;5.53;1.50;;;16.20;58.40;;;11.74;93.30;95558.56;4953857;28;20411;-56
2024/04/05 00:06:30;;;;;;;3.30;1.30;;;16.20;58.40;;;11.70;92.69;95556.72;4956685;28;20028;-54
2024/04/05 00:08:56;;;;;;;5.40;1.23;;;16.20;58.50;;;11.61;94.05;95547.66;4955342;28;20030;-56
2024/04/05 00:11:22;;;;;;;3.10;1.20;;;16.10;58.50;;;11.59;94.73;95553.25;4951876;28;20089;-54
2024/04/05 00:13:50;;;;;;;3.25;1.52;;;16.10;58.60;;;11.55;94.64;95554.88;4956122;28;20026;-56
2024/04/05 00:16:16;;;;;;;0.88;0.85;;;16.00;58.70;;;11.48;93.62;95557.03;4954005;28;20027;-56
2024/04/05 00:18:42;;;;;;;2.95;1.20;;;16.00;58.60;;;11.49;93.98;95559.41;4957129;28;20107;-56
2024/04/05 00:21:08;;;;;;;2.60;1.13;;;16.00;58.70;;;11.50;95.06;95544.22;4955388;28;20034;-54
2024/04/05 00:23:36;;;;;;;4.68;1.30;;;16.00;58.80;;;11.45;95.25;95547.69;4946501;28;20040;-55
2024/04/05 00:26:05;;;;;;;2.30;1.20;;;15.90;58.90;;;11.42;95.55;95550.13;4958763;28;20026;-54
2024/04/05 00:28:39;;;;;;;3.65;1.30;;;15.90;58.90;;;11.28;95.99;95553.34;4961017;28;20038;-54
2024/04/05 00:31:05;;;;;;;1.25;0.90;;;15.80;58.90;;;11.28;96.22;95553.34;4944337;28;20034;-56
2024/04/05 00:33:34;;;;;;;2.35;0.90;;;15.80;58.90;;;11.24;94.59;95551.47;4961157;28;20585;-54
2024/04/05 00:36:01;;;;;;;2.80;0.95;;;15.80;58.90;;;11.26;95.09;95552.00;4961239;28;20193;-56
2024/04/05 00:38:27;;;;;;;2.67;1.20;;;15.80;58.90;;;11.31;94.34;95557.31;4945153;28;20030;-57
2024/04/05 00:40:55;;;;;;;3.47;1.40;;;15.70;58.90;;;11.33;94.31;95555.19;4960580;28;20171;-57
2024/04/05 00:43:22;;;;;;;3.90;1.40;;;15.70;59.00;;;11.33;94.76;95556.00;4961582;28;20025;-56
2024/04/05 00:45:51;;;;;;;2.35;1.02;;;15.70;59.00;;;11.34;94.64;95556.78;4962742;28;20022;-54
2024/04/05 00:48:22;;;;;;;1.88;1.13;;;15.70;59.10;;;11.31;94.29;95544.81;4964089;28;20026;-57
2024/04/05 00:50:54;;;;;;;3.85;1.20;;;15.80;59.10;;;11.30;94.63;95539.72;4958457;28;20639;-57
2024/04/05 00:53:32;;;;;;;4.05;0.90;;;15.70;59.10;;;11.22;91.23;95546.44;4943112;28;20089;-55
2024/04/05 00:56:02;;;;;;;3.17;1.10;;;15.70;59.00;;;11.26;92.97;95541.34;4945686;28;20037;-56
2024/04/05 00:58:28;;;;;;;1.33;1.00;;;15.70;58.90;;;11.32;94.38;95540.28;4942160;28;20057;-56
2024/04/05 01:00:56;;;;;;;1.20;1.00;;;15.70;59.00;;;11.31;94.82;95536.00;4960612;28;20031;-55
2024/04/05 01:03:22;;;;;;;3.17;0.98;;;15.70;59.00;;;11.20;94.81;95537.88;4943661;28;20026;-57
2024/04/05 01:05:49;;;;;;;4.72;1.52;;;15.70;59.00;;;11.20;95.63;95532.56;4959516;28;20396;-52
2024/04/05 01:08:19;;;;;;;1.73;1.00;;;15.70;59.00;;;11.17;95.72;95534.97;4959759;28;20440;-53
2024/04/05 01:10:45;;;;;;;3.25;1.20;;;15.60;59.00;;;11.04;93.87;95529.13;4956980;28;20512;-56
2024/04/05 01:13:13;;;;;;;1.42;0.90;;;15.60;59.00;;;11.12;94.89;95533.09;4959663;28;20037;-54
2024/04/05 01:15:40;;;;;;;7.72;1.30;;;15.60;59.10;;;11.13;94.10;95528.59;4954903;28;20031;-54
2024/04/05 01:18:09;;;;;;;2.60;1.13;;;15.60;59.10;;;11.12;94.80;95525.09;4960832;28;20050;-55
2024/04/05 01:20:38;;;;;;;2.60;1.00;;;15.60;59.10;;;11.14;94.27;95530.16;4955064;28;20030;-53
2024/04/05 01:23:12;;;;;;;3.00;1.02;;;15.60;59.10;;;11.14;94.88;95520.31;4959098;28;20030;-55
2024/04/05 01:25:39;;;;;;;3.13;1.08;;;15.50;59.20;;;11.16;95.14;95525.38;4954540;28;20505;-52
2024/04/05 01:28:15;;;;;;;2.78;1.20;;;15.60;59.10;;;11.12;95.77;95530.41;4957007;28;20381;-53
2024/04/05 01:30:41;;;;;;;3.00;1.13;;;15.60;59.30;;;11.10;96.22;95530.72;4956610;28;20123;-56
2024/04/05 01:33:06;;;;;;;2.20;0.95;;;15.60;59.20;;;11.11;96.89;95524.28;4954048;28;22484;-54
2024/04/05 01:35:33;;;;;;;2.58;1.15;;;15.60;59.20;;;11.12;96.20;95527.75;4959146;28;20037;-56
2024/04/05 01:38:00;;;;;;;2.38;0.95;;;15.50;59.20;;;11.09;95.38;95523.78;4958828;28;20104;-56
2024/04/05 01:40:26;;;;;;;3.20;1.02;;;15.50;59.20;;;11.09;96.71;95517.63;4959856;28;20520;-54
2024/04/05 01:42:53;;;;;;;3.50;1.05;;;15.60;59.30;;;11.05;96.45;95522.69;4958692;28;20030;-52
2024/04/05 01:45:20;;;;;;;1.25;0.98;;;15.50;59.30;;;10.97;96.38;95517.94;4955693;28;20182;-54
2024/04/05 01:47:47;;;;;;;2.30;1.02;;;15.50;59.30;;;10.95;96.52;95514.72;4957321;28;20416;-54
2024/04/05 01:50:16;;;;;;;3.08;0.98;;;15.50;59.30;;;10.94;96.80;95512.34;4957473;28;20070;-54
2024/04/05 01:52:42;;;;;;;3.20;1.02;;;15.40;59.30;;;10.88;97.60;95508.88;4957030;28;20026;-57
2024/04/05 01:55:08;;;;;;;1.52;0.90;;;15.40;59.30;;;10.83;97.88;95506.22;4957346;28;20041;-56
2024/04/05 01:57:37;;;;;;;1.67;0.95;;;15.30;59.30;;;10.72;98.60;95508.09;4958561;28;20042;-54
2024/04/05 02:00:05;;;;;;;2.88;1.30;;;15.20;59.40;;;10.68;97.62;95503.53;4957933;28;20050;-53
2024/04/05 02:02:32;;;;;;;1.63;0.90;;;15.20;59.50;;;10.61;97.88;95498.47;4955723;28;20073;-55
2024/04/05 02:04:58;;;;;;;2.50;1.10;;;15.20;59.50;;;10.56;97.30;95496.63;4956557;28;20575;-50
2024/04/05 02:07:26;;;;;;;1.27;0.93;;;15.10;59.50;;;10.57;97.55;95497.44;4952856;28;20513;-56
2024/04/05 02:09:53;;;;;;;2.22;1.10;;;15.00;59.60;;;10.59;96.63;95500.59;4956613;28;20136;-51
2024/04/05 02:12:22;;;;;;;3.40;1.10;;;15.00;59.60;;;10.58;96.64;95504.34;4959091;28;20034;-56
2024/04/05 02:14:49;;;;;;;2.30;1.00;;;15.00;59.70;;;10.58;96.41;95499.81;4959366;28;20511;-51
2024/04/05 02:17:15;;;;;;;1.50;0.90;;;15.00;59.70;;;10.57;97.12;95502.75;4953404;28;20088;-54
2024/04/05 02:19:41;;;;;;;3.38;0.90;;;15.00;59.60;;;10.55;96.06;95496.88;4957811;28;20033;-54
2024/04/05 02:22:11;;;;;;;4.70;1.02;;;15.00;59.60;;;10.55;95.71;95496.88;4954125;28;20093;-55
2024/04/05 02:24:37;;;;;;;2.53;1.10;;;15.00;59.60;;;10.53;96.74;95493.69;4954154;28;20060;-54
2024/04/05 02:27:03;;;;;;;2.75;0.90;;;15.00;59.60;;;10.49;95.40;95495.28;4956336;28;20499;-54
2024/04/05 02:29:30;;;;;;;1.42;0.88;;;15.00;59.60;;;10.44;95.76;95493.44;4956030;28;20088;-55
2024/04/05 02:31:57;;;;;;;3.60;0.95;;;14.90;59.40;;;10.39;96.40;95499.53;4954066;28;20084;-56
2024/04/05 02:34:23;;;;;;;3.88;1.00;;;14.90;59.50;;;10.33;96.35;95497.13;4958296;28;20109;-56
2024/04/05 02:36:50;;;;;;;2.28;1.10;;;14.80;59.40;;;10.24;97.05;95499.47;4958521;28;20033;-57
2024/04/05 02:39:17;;;;;;;3.90;1.00;;;14.80;59.50;;;10.14;97.54;95500.25;4956718;28;20034;-56
2024/04/05 02:41:47;;;;;;;3.95;1.40;;;14.70;59.50;;;10.08;97.41;95496.00;4956264;28;20018;-56
2024/04/05 02:44:14;;;;;;;2.15;0.82;;;14.60;59.50;;;9.98;96.34;95497.84;4957143;28;22470;-54
2024/04/05 02:46:42;;;;;;;3.25;1.15;;;14.50;59.60;;;10.00;95.88;95499.19;4957283;28;20516;-57
2024/04/05 02:49:09;;;;;;;2.92;1.05;;;14.50;59.70;;;9.94;96.45;95501.03;4955004;28;20030;-54
2024/04/05 02:51:35;;;;;;;3.00;0.82;;;14.40;59.70;;;9.90;96.30;95504.47;4954685;28;20023;-55
2024/04/05 02:54:02;;;;;;;1.02;0.80;;;14.30;59.70;;;9.84;96.71;95514.31;4957671;28;20022;-53
2024/04/05 02:56:29;;;;;;;1.83;1.10;;;14.30;59.70;;;9.76;97.49;95512.13;4957588;28;20049;-57
2024/04/05 02:58:56;;;;;;;1.85;1.00;;;14.20;59.70;;;9.63;97.92;95510.75;4939301;28;20049;-53
2024/04/05 03:01:24;;;;;;;4.07;1.05;;;14.20;59.80;;;9.61;97.27;95501.44;4971362;23;21126;-48
2024/04/05 03:03:50;;;;;;;1.48;1.02;;;14.10;59.70;;;9.48;97.97;95498.19;4957674;28;20419;-49
2024/04/05 03:06:17;;;;;;;1.30;0.88;;;14.00;59.70;;;9.28;99.24;95511.41;4958129;28;20744;-50
2024/04/05 03:08:43;;;;;;;3.20;1.00;;;13.90;59.70;;;9.17;100.00;95504.41;4962076;28;20026;-47
2024/04/05 03:11:10;;;;;;;1.85;1.17;;;13.80;59.80;;;9.18;100.00;95504.16;4958820;28;20093;-49
2024/04/05 03:13:36;;;;;;;2.70;1.00;;;13.70;59.80;;;9.05;100.00;95509.91;4940244;28;20038;-51
2024/04/05 03:16:02;;;;;;;2.55;0.93;;;13.70;60.00;;;9.00;100.00;95501.94;4938434;28;20042;-48
2024/04/05 03:18:30;;;;;;;3.17;0.95;;;13.60;60.00;;;8.93;100.00;95514.63;4940334;28;20031;-48
2024/04/05 03:20:56;;;;;;;3.10;0.90;;;13.50;60.10;;;8.88;100.00;95511.94;4936277;28;20178;-51
2024/04/05 03:23:22;;;;;;;2.00;0.90;;;13.40;60.20;;;8.85;100.00;95507.13;4939299;28;20039;-51
2024/04/05 03:25:49;;;;;;;1.65;1.05;;;13.40;60.30;;;8.70;100.00;95507.81;4941060;28;20034;-48
2024/04/05 03:28:15;;;;;;;3.70;1.10;;;13.30;60.40;;;8.54;100.00;95506.91;4939498;28;20038;-51
2024/04/05 03:30:40;;;;;;;3.08;1.00;;;13.30;60.40;;;8.50;100.00;95497.84;4940756;28;20026;-53
2024/04/05 03:33:07;;;;;;;1.27;0.95;;;13.20;60.60;;;8.46;100.00;95494.06;4942651;28;20026;-49
2024/04/05 03:35:37;;;;;;;2.00;0.98;;;13.10;60.70;;;8.44;100.00;95494.34;4952900;28;20470;-48
2024/04/05 03:38:04;;;;;;;4.00;0.90;;;13.00;61.00;;;8.42;100.00;95479.72;4941058;28;20043;-51
2024/04/05 03:40:30;;;;;;;2.05;0.90;;;13.00;61.10;;;8.36;100.00;95478.84;4938279;28;20054;-51
2024/04/05 03:42:56;;;;;;;4.65;0.90;;;12.90;61.20;;;8.30;100.00;95485.97;4941443;28;20437;-52
2024/04/05 03:45:22;;;;;;;3.45;1.10;;;12.90;61.30;;;8.26;100.00;95482.19;4939858;28;20051;-51
2024/04/05 03:47:48;;;;;;;2.90;0.80;;;12.80;61.40;;;8.23;100.00;95482.72;4936322;28;20114;-52
2024/04/05 03:50:14;;;;;;;2.13;1.08;;;12.80;61.50;;;8.17;100.00;95489.03;4939528;28;20041;-48
2024/04/05 03:52:40;;;;;;;1.52;0.98;;;12.70;61.60;;;8.10;100.00;95491.09;4945404;28;20039;-51
2024/04/05 03:55:06;;;;;;;2.55;0.90;;;12.70;61.60;;;8.07;100.00;95488.94;4941976;28;20366;-47
2024/04/05 03:57:32;;;;;;;1.42;0.80;;;12.60;61.70;;;8.08;100.00;95491.34;4945005;28;20038;-52
2024/04/05 03:59:59;;;;;;;1.38;0.80;;;12.60;61.70;;;7.97;100.00;95484.31;4945009;28;20062;-49
2024/04/05 04:02:25;;;;;;;1.73;0.80;;;12.50;61.80;;;7.89;100.00;95479.47;4941069;28;20062;-49
2024/04/05 04:04:51;;;;;;;3.30;1.20;;;12.50;61.80;;;7.89;100.00;95480.25;4939090;28;20037;-51
2024/04/05 04:07:18;;;;;;;3.42;1.00;;;12.40;61.90;;;7.89;100.00;95493.50;4941669;28;20023;-48
2024/04/05 04:09:46;;;;;;;2.28;1.52;;;12.40;61.90;;;7.72;100.00;95486.72;4942108;28;20483;-50
2024/04/05 04:12:15;;;;;;;1.75;1.60;;;12.40;62.10;;;7.75;100.00;95489.66;4943094;28;20027;-49
2024/04/05 04:14:41;;;;;;;2.38;1.10;;;12.40;62.30;;;7.78;100.00;95488.38;4939572;28;20093;-49
2024/04/05 04:17:08;;;;;;;2.03;1.00;;;12.30;62.30;;;7.82;100.00;95489.47;4942941;28;20525;-52
2024/04/05 04:19:33;;;;;;;4.40;1.02;;;12.30;62.40;;;7.81;100.00;95490.53;4939681;28;20564;-50
2024/04/05 04:22:00;;;;;;;1.98;1.10;;;12.30;63.20;;;7.94;100.00;95487.47;4941488;28;20118;-50
2024/04/05 04:24:26;;;;;;;1.75;0.90;;;12.40;62.70;;;7.92;100.00;95483.47;4940636;28;20046;-49
2024/04/05 04:26:52;;;;;;;3.42;0.88;;;12.40;62.60;;;7.88;100.00;95486.63;4941861;28;20030;-52
2024/04/05 04:29:18;;;;;;;3.15;1.08;;;12.30;62.50;;;7.87;100.00;95473.63;4942626;28;20069;-50
2024/04/05 04:31:45;;;;;;;1.52;0.90;;;12.30;62.60;;;7.83;100.00;95473.31;4943581;28;20679;-54
2024/04/05 04:34:11;;;;;;;1.85;1.00;;;12.30;63.40;;;7.82;100.00;95470.91;4941947;28;20030;-51
2024/04/05 04:36:36;;;;;;;2.35;0.90;;;12.30;62.60;;;7.87;100.00;95460.38;4944419;28;20378;-50
2024/04/05 04:39:08;;;;;;;2.17;1.00;;;12.30;62.70;;;7.90;100.00;95470.47;4943576;28;20038;-52
2024/04/05 04:41:37;;;;;;;2.47;1.15;;;12.30;62.70;;;7.87;100.00;95470.97;4941940;28;20031;-51
2024/04/05 04:44:04;;;;;;;3.58;1.33;;;12.30;62.60;;;7.91;100.00;95479.22;4942193;28;20034;-54
2024/04/05 04:46:29;;;;;;;2.30;1.20;;;12.30;62.70;;;7.92;100.00;95478.16;4942821;28;20027;-51
2024/04/05 04:48:57;;;;;;;3.10;1.17;;;12.30;62.80;;;7.93;100.00;95487.72;4939718;28;20093;-49
2024/04/05 04:51:23;;;;;;;6.30;2.08;;;12.30;62.80;;;7.94;100.00;95484.03;4943254;28;20018;-53
2024/04/05 04:53:49;;;;;;;2.47;1.92;;;12.30;62.70;;;7.92;100.00;95486.13;4941686;28;20035;-49
2024/04/05 04:56:16;;;;;;;3.00;1.83;;;12.30;62.60;;;7.89;100.00;95482.13;4943164;28;20033;-49
2024/04/05 04:58:43;;;;;;;4.05;1.30;;;12.40;62.60;;;7.83;100.00;95491.06;4942581;28;20106;-51
2024/04/05 05:01:09;;;;;;;4.05;1.52;;;12.40;62.50;;;7.89;100.00;95492.72;4941703;28;20158;-51
2024/04/05 05:03:35;;;;;;;3.55;1.40;;;12.30;62.70;;;7.89;100.00;95485.56;4938244;28;20054;-48
2024/04/05 05:06:01;;;;;;;4.22;1.63;;;12.30;62.40;;;7.81;100.00;95486.03;4942036;28;20030;-52
2024/04/05 05:08:28;;;;;;;1.67;0.80;;;12.30;62.40;;;7.71;100.00;95490.41;4942966;28;20023;-49
2024/04/05 05:10:54;;;;;;;4.93;1.92;;;12.30;62.30;;;7.70;100.00;95486.16;4942210;28;20041;-52
2024/04/05 05:13:20;;;;;;;3.08;1.20;;;12.30;62.20;;;7.65;100.00;95484.25;4940684;28;20038;-52
2024/04/05 05:15:46;;;;;;;2.78;1.10;;;12.20;62.20;;;7.63;100.00;95481.84;4938636;28;20524;-51
2024/04/05 05:18:12;;;;;;;1.55;0.90;;;12.30;62.20;;;7.59;100.00;95493.19;4942958;28;20110;-53
2024/04/05 05:20:48;;;;;;;4.90;1.13;;;12.20;62.20;;;7.55;100.00;95490.25;4943870;28;20022;-50
2024/04/05 05:23:15;;;;;;;1.52;1.10;;;12.20;62.30;;;7.54;100.00;95495.78;4940709;28;20064;-51
2024/04/05 05:25:46;;;;;;;3.15;1.40;;;12.20;62.40;;;7.64;100.00;95495.88;4943496;28;20046;-50
2024/04/05 05:28:13;;;;;;;1.02;0.80;;;12.20;62.50;;;7.68;100.00;95490.91;4941849;28;20038;-52
2024/04/05 05:30:39;;;;;;;2.15;0.90;;;12.20;62.40;;;7.69;100.00;95500.47;4943809;28;20031;-50
2024/04/05 05:33:07;;;;;;;1.63;0.70;;;12.20;62.40;;;7.69;100.00;95493.31;4940209;28;20041;-52
2024/04/05 05:35:33;;;;;;;3.15;1.00;;;12.30;62.40;;;7.70;100.00;95499.41;4942013;28;20112;-54
2024/04/05 05:38:00;;;;;;;1.48;0.93;;;12.30;62.40;;;7.67;100.00;95495.41;4942961;28;20074;-50
2024/04/05 05:40:27;;;;;;;3.97;0.93;;;12.30;62.30;;;7.70;100.00;95488.81;4940283;28;20019;-50
2024/04/05 05:42:53;;;;;;;5.22;1.30;;;12.30;62.20;;;7.71;100.00;95485.91;4942472;28;20394;-50
2024/04/05 05:45:23;;;;;;;1.80;1.10;;;12.40;62.30;;;7.72;100.00;95486.72;4941207;28;20023;-54
2024/04/05 05:47:53;;;;;;;4.25;1.02;;;12.40;62.30;;;7.84;100.00;95485.53;4941519;28;20707;-51
2024/04/05 05:50:24;;;;;;;0.75;0.70;;;12.50;62.30;;;7.98;100.00;95485.91;4945132;28;20477;-53
2024/04/05 05:52:51;;;;;;;2.45;0.90;;;12.60;62.30;;;8.08;100.00;95475.44;4941213;28;20370;-49
2024/04/05 05:55:22;;;;;;;1.35;0.95;;;12.70;62.30;;;8.18;100.00;95473.91;4917168;28;20046;-51
2024/04/05 05:57:49;;;;;;;2.53;0.80;;;12.80;62.30;;;8.24;100.00;95478.19;4940844;28;20045;-52
2024/04/05 06:00:15;;;;;;;1.80;0.80;;;12.90;62.10;;;8.38;100.00;95482.06;4939623;28;20029;-51
2024/04/05 06:02:41;;;;;;;2.17;0.80;;;13.10;62.10;;;8.60;100.00;95489.97;4939145;28;20147;-52
2024/04/05 06:05:11;;;;;;;3.50;1.10;;;13.30;62.00;;;8.92;100.00;95494.44;4941123;28;20466;-53
2024/04/05 06:07:37;;;;;;;1.55;0.90;;;13.60;61.80;;;9.27;99.72;95499.16;4941778;28;20047;-53
2024/04/05 06:10:04;;;;;;;4.25;1.23;;;14.00;61.50;;;9.63;97.79;95509.97;4940159;28;20442;-52
2024/04/05 06:12:30;;;;;;;4.03;1.10;;;14.30;61.10;;;9.95;95.64;95499.97;4940337;28;20029;-53
2024/04/05 06:14:58;;;;;;;2.38;1.10;;;14.80;60.80;;;10.37;92.82;95498.19;4941062;28;20819;-52
2024/04/05 06:17:26;;;;;;;1.83;1.10;;;15.30;60.20;;;10.77;88.63;95501.94;4939946;28;20039;-51
2024/04/05 06:19:57;;;;;;;2.17;1.10;;;15.80;59.60;;;11.27;85.91;95503.72;4941836;28;20037;-50
2024/04/05 06:22:27;;;;;;;1.15;1.00;;;16.30;58.90;;;11.68;84.04;95508.94;4939679;28;20105;-51
2024/04/05 06:24:54;;;;;;;5.07;1.42;;;16.80;58.50;;;12.20;80.04;95510.34;4940533;28;20030;-52
2024/04/05 06:27:22;;;;;;;1.75;1.45;;;17.40;57.90;;;12.76;78.50;95514.50;4942224;28;20481;-50
2024/04/05 06:29:56;;;;;;;3.65;1.55;;;17.90;57.10;;;13.37;75.37;95516.63;4937735;28;20034;-51
2024/04/05 06:32:23;;;;;;;3.15;1.58;;;18.60;56.10;;;13.90;71.61;95507.75;4938825;28;20043;-54
2024/04/05 06:34:50;;;;;;;3.00;1.25;;;19.20;55.40;;;14.37;65.24;95506.03;4935822;28;20058;-50
2024/04/05 06:37:16;;;;;;;5.53;1.70;;;19.80;54.50;;;14.68;63.25;95514.47;4937314;28;20169;-49
2024/04/05 06:39:43;;;;;;;4.90;1.42;;;20.20;53.50;;;14.95;61.13;95500.34;4940677;28;21370;-52
2024/04/05 06:42:10;;;;;;;2.85;1.42;;;20.50;52.50;;;15.16;61.41;95513.41;4939856;28;20050;-49
2024/04/05 06:44:39;;;;;;;5.45;1.35;;;20.70;51.80;;;15.24;58.93;95504.69;4941353;28;20031;-53
2024/04/05 06:47:07;;;;;;;2.78;1.20;;;21.00;51.00;;;15.33;59.97;95518.22;4938975;28;20023;-50
2024/04/05 06:49:34;;;;;;;4.95;1.30;;;21.10;50.30;;;15.43;59.87;95507.31;4939248;28;20030;-49
2024/04/05 06:52:07;;;;;;;3.17;1.10;;;21.20;49.80;;;15.49;58.89;95496.16;4940315;28;20037;-52
2024/04/05 06:54:44;;;;;;;3.53;1.30;;;21.40;49.10;;;15.68;58.66;95498.00;4938741;28;20030;-51
2024/04/05 06:57:13;;;;;;;2.33;1.10;;;21.60;48.50;;;15.89;56.27;95488.44;4936665;28;20421;-51
2024/04/05 06:59:39;;;;;;;3.08;1.00;;;21.70;48.00;;;16.07;55.47;95491.28;4938186;28;20527;-51
2024/04/05 07:02:06;;;;;;;3.20;1.10;;;21.80;47.40;;;16.22;55.71;95487.47;4937886;28;20106;-52
2024/04/05 07:04:32;;;;;;;3.47;1.20;;;22.00;47.00;;;16.32;55.16;95487.25;4940394;28;20041;-52
2024/04/05 07:06:58;;;;;;;4.47;1.00;;;22.10;46.50;;;16.42;54.37;95482.47;4937470;28;20022;-51
2024/04/05 07:09:25;;;;;;;4.30;1.10;;;22.20;46.20;;;16.47;53.21;95488.81;4938080;28;20037;-52
2024/04/05 07:11:52;;;;;;;2.25;1.13;;;22.30;45.50;;;16.59;54.84;95487.16;4940417;28;20505;-52
2024/04/05 07:14:19;;;;;;;5.75;1.20;;;22.30;45.30;;;16.70;53.03;95492.31;4939037;28;20094;-49
2024/04/05 07:16:47;;;;;;;2.90;1.15;;;22.30;45.00;;;16.84;53.33;95493.06;4938209;28;20465;-53
2024/04/05 07:19:17;;;;;;;2.15;1.13;;;22.40;45.00;;;16.96;52.15;95487.16;4940576;28;20045;-52
2024/04/05 07:21:47;;;;;;;1.80;0.80;;;22.50;44.60;;;17.01;51.64;95489.69;4936625;28;20034;-51
2024/04/05 07:24:14;;;;;;;1.73;1.15;;;22.60;44.10;;;17.12;51.83;95482.97;4942172;28;20430;-49
2024/04/05 07:26:42;;;;;;;1.90;1.10;;;22.70;44.10;;;17.22;51.60;95487.28;4940779;28;20026;-50
2024/04/05 07:29:09;;;;;;;3.50;1.17;;;22.80;43.70;;;17.29;52.10;95490.31;4941584;28;20043;-52
2024/04/05 07:31:36;;;;;;;2.85;1.13;;;23.00;43.60;;;17.40;49.81;95486.28;4941720;28;20030;-49
2024/04/05 07:34:04;;;;;;;3.55;1.30;;;23.20;43.10;;;17.59;49.48;95480.66;4936634;28;20792;-53
2024/04/05 07:36:30;;;;;;;1.52;0.90;;;23.30;42.50;;;17.77;50.45;95486.94;4937420;28;20109;-49
2024/04/05 07:38:56;;;;;;;1.40;1.02;;;23.60;42.30;;;17.99;48.12;95486.03;4937288;28;20030;-50
2024/04/05 07:41:22;;;;;;;3.78;1.10;;;23.70;41.80;;;18.19;48.67;95479.25;4935157;28;20038;-50
2024/04/05 07:43:50;;;;;;;3.67;0.90;;;24.00;41.50;;;18.46;48.60;95491.66;4936417;28;20373;-52
2024/04/05 07:46:16;;;;;;;1.90;1.27;;;24.30;41.20;;;18.59;48.04;95492.59;4939182;28;20066;-54
2024/04/05 07:48:45;;;;;;;2.70;1.20;;;24.60;40.90;;;18.77;47.35;95502.31;4937098;28;20054;-53
2024/04/05 07:51:11;;;;;;;1.80;1.08;;;25.00;40.50;;;19.14;47.14;95497.31;4936942;28;20489;-54
2024/04/05 07:53:37;;;;;;;1.67;1.02;;;25.30;40.00;;;19.29;47.48;95510.31;4941071;28;20039;-50
2024/04/05 07:56:03;;;;;;;2.20;1.27;;;25.60;39.60;;;19.52;46.44;95500.06;4937911;28;20052;-51
2024/04/05 07:58:29;;;;;;;1.40;1.15;;;25.90;39.20;;;19.83;45.05;95504.44;4939883;28;21499;-49
2024/04/05 08:00:56;;;;;;;1.52;1.10;;;26.10;38.80;;;20.09;45.23;95502.41;4935762;28;20027;-52
2024/04/05 08:03:22;;;;;;;3.65;1.17;;;26.30;38.20;;;20.40;43.27;95503.97;4938997;28;20078;-57
2024/04/05 08:05:48;;;;;;;1.58;1.20;;;26.50;37.50;;;20.71;42.54;95498.16;4935902;28;20050;-55
2024/04/05 08:08:15;;;;;;;5.28;1.20;;;26.80;37.40;;;20.86;41.06;95496.75;4936463;28;20145;-46
2024/04/05 08:10:40;;;;;;;1.70;1.10;;;27.00;36.60;;;21.06;42.26;95503.28;4938584;28;20265;-54
2024/04/05 08:13:07;;;;;;;4.30;1.23;;;27.30;36.60;;;21.08;41.25;95492.13;4938715;28;20031;-50
2024/04/05 08:15:33;;;;;;;2.22;1.13;;;27.50;36.20;;;21.09;42.07;95507.22;4938900;28;20031;-47
2024/04/05 08:17:59;;;;;;;4.88;1.50;;;27.70;35.90;;;21.17;40.91;95509.84;4933790;28;20165;-54
2024/04/05 08:20:26;;;;;;;2.35;1.30;;;27.90;35.50;;;21.45;41.39;95498.44;4939251;28;20195;-57
2024/04/05 08:22:52;;;;;;;3.78;1.20;;;28.00;35.10;;;21.79;40.11;95499.97;4938730;28;20513;-48
2024/04/05 08:25:18;;;;;;;1.40;1.30;;;28.20;34.80;;;21.84;39.68;95507.06;4938250;28;20046;-48
2024/04/05 08:27:47;;;;;;;1.58;1.15;;;28.50;34.60;;;22.08;40.40;95500.88;4937923;28;20034;-54
2024/04/05 08:30:13;;;;;;;2.17;1.65;;;28.60;34.20;;;22.21;38.82;95512.53;4936872;28;20628;-53
2024/04/05 08:32:43;;;;;;;1.30;1.20;;;28.80;33.80;;;22.41;38.00;95514.31;4937066;28;20061;-46
2024/04/05 08:35:09;;;;;;;1.65;1.40;;;28.90;33.20;;;22.54;37.92;95512.38;4938055;28;20046;-48
2024/04/05 08:37:37;;;;;;;2.45;1.33;;;29.00;33.20;;;22.71;37.17;95506.66;4939567;28;20088;-50
2024/04/05 08:40:05;;;;;;;2.95;1.30;;;29.20;32.80;;;22.55;37.73;95505.81;4942180;28;20034;-47
2024/04/05 08:42:37;;;;;;;1.40;1.00;;;29.30;32.40;;;22.69;38.18;95502.69;4939131;28;20729;-53
2024/04/05 08:45:05;;;;;;;2.33;1.13;;;29.40;32.40;;;22.88;37.07;95494.75;4939687;28;21155;-53
2024/04/05 08:47:33;;;;;;;3.78;1.40;;;29.50;32.30;;;23.24;36.35;95499.22;4941295;28;20389;-53
2024/04/05 08:50:05;;;;;;;2.22;1.23;;;29.70;31.90;;;23.49;35.56;95499.88;4940178;28;20062;-53
2024/04/05 08:52:31;;;;;;;;;;;30.00;31.40;;;23.55;35.80;95514.81;4940111;28;20106;-47
2024/04/05 08:54:59;;;;;;;3.78;1.50;;;30.10;32.30;;;23.66;36.22;95508.84;4941462;28;20239;-47
2024/04/05 08:57:36;;;;;;;2.80;1.42;;;30.30;31.40;;;23.74;35.52;95516.06;4943046;28;20058;-47
2024/04/05 09:00:07;;;;;;;2.95;1.30;;;30.40;30.60;;;23.82;35.81;95506.16;4941336;28;20508;-52
2024/04/05 09:02:38;;;;;;;2.20;1.40;;;30.60;30.50;;;23.73;36.14;95509.06;4940218;28;20051;-46
2024/04/05 09:05:07;;;;;;;4.20;1.30;;;30.70;30.20;;;24.08;35.75;95502.91;4940169;28;20030;-54
2024/04/05 09:07:33;;;;;;;3.72;1.42;;;30.90;30.30;;;24.35;34.85;95501.19;4938924;28;20027;-55
2024/04/05 09:10:16;;;;;;;4.80;1.75;;;31.00;30.00;;;24.75;34.63;95508.28;4940152;28;20027;-53
2024/04/05 09:12:54;;;;;;;4.60;1.40;;;31.20;29.90;;;24.45;33.58;95490.56;4941642;28;20208;-53
2024/04/05 09:15:24;;;;;;;2.72;1.17;;;31.40;29.50;;;24.58;33.60;95502.13;4939710;28;20489;-51
2024/04/05 09:17:50;;;;;;;2.70;1.30;;;31.40;29.30;;;24.81;33.76;95502.22;4941188;28;20551;-49
2024/04/05 09:20:29;;;;;;;1.98;1.27;;;31.50;29.20;;;24.61;33.75;95498.69;4942426;28;20027;-52
2024/04/05 09:23:06;;;;;;;1.23;1.13;;;31.60;29.00;;;24.65;33.56;95504.22;4941481;28;20449;-52
2024/04/05 09:25:40;;;;;;;2.50;1.30;;;31.80;28.80;;;25.09;33.55;95512.09;4941365;28;20235;-51
2024/04/05 09:28:16;;;;;;;1.70;1.33;;;31.90;28.70;;;25.23;32.53;95522.50;4943159;28;20181;-47
2024/04/05 09:30:48;;;;;;;2.50;1.60;;;32.20;28.40;;;24.86;33.33;95523.72;4940492;28;20037;-58
2024/04/05 09:33:21;;;;;;;2.42;1.48;;;32.20;27.90;;;24.42;32.36;95520.44;4935774;28;20414;-54
2024/04/05 09:35:49;;;;;;;2.90;1.30;;;32.20;27.30;;;24.53;33.42;95529.63;4939331;28;20049;-50
2024/04/05 09:38:16;;;;;;;3.15;1.52;;;32.00;27.50;;;24.27;35.70;95532.91;4941460;28;20213;-51
2024/04/05 09:40:42;;;;;;;6.55;1.35;;;31.70;27.80;;;24.06;36.61;95527.72;4943414;28;20475;-47
2024/04/05 09:43:11;;;;;;;2.72;1.55;;;31.40;28.10;;;23.99;37.44;95527.56;4941596;28;20554;-53
2024/04/05 09:45:40;;;;;;;2.60;1.60;;;31.30;28.40;;;24.37;35.96;95526.91;4941934;28;20054;-56
2024/04/05 09:48:08;;;;;;;3.40;1.52;;;31.30;28.50;;;24.36;36.27;95528.06;4939953;28;20047;-50
2024/04/05 09:50:37;;;;;;;3.42;2.00;;;31.40;28.60;;;24.80;36.45;95519.69;4938283;28;20457;-56
2024/04/05 09:53:04;;;;;;;2.13;1.50;;;31.40;28.80;;;25.13;36.08;95518.44;4956635;28;20026;-50
2024/04/05 09:55:39;;;;;;;2.15;1.70;;;31.60;29.00;;;25.48;35.20;95507.44;4938397;28;20041;-47
2024/04/05 09:58:10;;;;;;;5.43;1.95;;;31.90;29.00;;;25.56;33.44;95519.25;4939163;28;20656;-53
2024/04/05 10:00:40;;;;;;;3.22;1.80;;;32.20;28.60;;;25.82;33.05;95510.38;4939564;28;20030;-46
2024/04/05 10:03:06;;;;;;;3.22;1.60;;;32.50;28.40;;;26.12;32.62;95521.38;4940159;28;20050;-49
2024/04/05 10:05:33;;;;;;;2.92;1.67;;;32.70;28.10;;;26.50;31.81;95523.16;4940096;28;20526;-47
2024/04/05 10:08:17;;;;;;;2.25;1.52;;;32.90;27.90;;;26.72;30.21;95516.03;4938458;28;20493;-50
2024/04/05 10:10:45;;;;;;;2.08;1.80;;;33.20;27.30;;;26.69;31.72;95526.91;4939728;28;20030;-51
2024/04/05 10:13:29;;;;;;;3.55;1.88;;;33.40;27.30;;;27.05;30.62;95513.72;4951889;28;20031;-55
2024/04/05 10:16:01;;;;;;;6.53;1.95;;;33.70;27.10;;;26.21;32.17;95510.22;4939098;28;20047;-54
2024/04/05 10:18:42;;;;;;;2.05;1.45;;;33.80;26.70;;;26.56;30.86;95514.66;4937790;28;20089;-50
2024/04/05 10:21:12;;;;;;;3.50;1.92;;;33.70;26.50;;;26.96;30.85;95506.59;4939035;28;20049;-47
2024/04/05 10:23:45;;;;;;;3.17;1.80;;;33.90;26.70;;;27.04;32.12;95526.59;4941856;28;20034;-52